ADDS METAR Data INFO
IDs: Format: Raw Decoded Include TAF

Data at: 0246 UTC 21 Oct 2017

KPOU 210153Z AUTO 12003KT 10SM CLR 09/06 A3018 RMK AO2 SLP216 T00890056
KPOU 210053Z AUTO 00000KT 10SM CLR 10/06 A3016 RMK AO2 SLP208 T01000056
KPOU 202353Z 00000KT 10SM CLR 11/05 A3014 RMK AO2 SLP204 T01110050 10228 20111 51015
KPOU 202253Z 14004KT 10SM CLR 14/06 A3014 RMK AO2 SLP201 T01390056
KPOU 202153Z 34004KT 10SM CLR 18/03 A3011 RMK AO2 SLP193 T01830033
KPOU 202053Z 01005KT 10SM CLR 22/02 A3010 RMK AO2 SLP188 T02220022 53003
KPOU 201953Z 31007KT 280V350 10SM CLR 23/02 A3009 RMK AO2 SLP185 T02280022
KPOU 201853Z 01009KT 10SM CLR 23/02 A3008 RMK AO2 SLP183 T02280017
KPOU 201753Z VRB03KT 10SM CLR 21/02 A3009 RMK AO2 SLP185 T02110017 10217 20061 58018
KPOU 201653Z 35007KT 10SM CLR 21/01 A3011 RMK AO2 SLP193 T02060011
KPOU 201553Z 28007KT 10SM CLR 19/01 A3013 RMK AO2 SLP201 T01890011
KPOU 201453Z 24003KT 10SM CLR 17/04 A3014 RMK AO2 SLP203 T01720039 50006
KPOU 201353Z 00000KT 10SM CLR 15/05 A3016 RMK AO2 SLP209 T01500050
KPOU 201253Z 00000KT 10SM CLR 11/07 A3015 RMK AO2 SLP207 T01060072
KPOU 201153Z 00000KT 10SM CLR 06/05 A3012 RMK AO2 SLP197 T00610050 10139 20050 51020
KPOU 201053Z 00000KT 10SM CLR 06/04 A3010 RMK AO2 SLP191 T00560039
KPOU 200953Z 00000KT 10SM CLR 06/05 A3009 RMK AO2 SLP186 T00610050
KPOU 200853Z 00000KT 10SM CLR 07/06 A3006 RMK AO2 SLP177 T00720056 53003
KPOU 200753Z 05003KT 10SM CLR 08/06 A3005 RMK AO2 SLP174 T00780061
KPOU 200653Z 00000KT 10SM CLR 10/07 A3005 RMK AO2 SLP173 T01000067
KPOU 200553Z 20003KT 10SM CLR 12/07 A3005 RMK AO2 SLP173 T01220072 10128 20089 53002
KPOU 200453Z 00000KT 10SM CLR 09/07 A3005 RMK AO2 SLP174 T00940072 402280039
KPOU 200353Z 00000KT 10SM CLR 10/07 A3004 RMK AO2 SLP170 T01000072
KPOU 200253Z 00000KT 10SM CLR 09/07 A3005 RMK AO2 SLP171 T00940067 50002
KPOU 200153Z 12004KT 10SM CLR 11/07 A3006 RMK AO2 SLP175 T01060072
KPOU 200053Z 00000KT 10SM CLR 12/07 A3005 RMK AO2 SLP172 T01170072
KPOU 192353Z 00000KT 10SM CLR 12/07 A3004 RMK AO2 SLP170 T01220067 10228 20122 53004
KPOU 192253Z 00000KT 10SM CLR 14/06 A3004 RMK AO2 SLP169 T01440061
KPOU 192153Z 17004KT 10SM CLR 20/06 A3002 RMK AO2 SLP163 T02000056
KPOU 192053Z 20005KT 10SM CLR 22/05 A3003 RMK AO2 SLP165 T02220050 56022
KPOU 191953Z 21009KT 10SM CLR 23/03 A3005 RMK AO2 SLP171 T02280033
KPOU 191853Z 21007KT 10SM CLR 23/03 A3006 RMK AO2 SLP177 T02280033
KPOU 191753Z 24012G18KT 10SM CLR 22/03 A3009 RMK AO2 SLP187 T02220033 10222 20056 58033
KPOU 191653Z 21008G17KT 10SM CLR 21/02 A3014 RMK AO2 SLP202 T02060022
KPOU 191553Z 23010G19KT 10SM CLR 20/06 A3017 RMK AO2 SLP213 T02000056
KPOU 191453Z VRB04KT 10SM CLR 17/07 A3019 RMK AO2 SLP221 T01720067 58011